sensor_id;sensor_type;location;lat;lon;timestamp;pressure;altitude;pressure_sealevel;temperature;humidity
23446;BME280;11895;48.738;9.320;2023-01-27T00:01:15;99052.88;;;2.63;100.00
23446;BME280;11895;48.738;9.320;2023-01-27T00:03:43;99052.88;;;2.66;100.00
23446;BME280;11895;48.738;9.320;2023-01-27T00:06:11;99055.41;;;2.75;100.00
23446;BME280;11895;48.738;9.320;2023-01-27T00:08:39;99063.38;;;2.75;100.00
23446;BME280;11895;48.738;9.320;2023-01-27T00:11:07;99062.41;;;2.82;100.00
23446;BME280;11895;48.738;9.320;2023-01-27T00:13:53;99050.75;;;2.94;100.00
23446;BME280;11895;48.738;9.320;2023-01-27T00:16:21;99042.75;;;2.96;100.00
23446;BME280;11895;48.738;9.320;2023-01-27T00:18:49;99037.44;;;2.96;100.00
23446;BME280;11895;48.738;9.320;2023-01-27T00:21:17;99042.66;;;3.05;100.00
23446;BME280;11895;48.738;9.320;2023-01-27T00:24:03;99043.47;;;3.08;100.00
23446;BME280;11895;48.738;9.320;2023-01-27T00:26:50;99032.06;;;3.00;100.00
23446;BME280;11895;48.738;9.320;2023-01-27T00:29:18;99046.13;;;3.10;100.00
23446;BME280;11895;48.738;9.320;2023-01-27T00:31:46;99035.59;;;3.01;100.00
23446;BME280;11895;48.738;9.320;2023-01-27T00:34:33;99040.25;;;2.82;100.00
23446;BME280;11895;48.738;9.320;2023-01-27T00:37:01;99038.50;;;2.79;100.00
23446;BME280;11895;48.738;9.320;2023-01-27T00:39:28;99037.56;;;2.87;100.00
23446;BME280;11895;48.738;9.320;2023-01-27T00:41:56;99040.09;;;2.94;100.00
23446;BME280;11895;48.738;9.320;2023-01-27T00:44:24;99036.66;;;2.88;100.00
23446;BME280;11895;48.738;9.320;2023-01-27T00:46:51;99041.03;;;2.92;100.00
23446;BME280;11895;48.738;9.320;2023-01-27T00:49:19;99032.25;;;2.83;100.00
23446;BME280;11895;48.738;9.320;2023-01-27T00:51:48;99045.63;;;2.77;100.00
23446;BME280;11895;48.738;9.320;2023-01-27T00:54:17;99046.28;;;2.95;100.00
23446;BME280;11895;48.738;9.320;2023-01-27T00:56:45;99051.09;;;2.67;100.00
23446;BME280;11895;48.738;9.320;2023-01-27T00:59:13;99053.63;;;2.77;100.00
23446;BME280;11895;48.738;9.320;2023-01-27T01:01:41;99053.63;;;2.77;100.00
23446;BME280;11895;48.738;9.320;2023-01-27T01:04:09;99051.88;;;2.76;100.00
23446;BME280;11895;48.738;9.320;2023-01-27T01:06:37;99052.03;;;2.61;100.00
23446;BME280;11895;48.738;9.320;2023-01-27T01:09:04;99051.97;;;2.64;100.00
23446;BME280;11895;48.738;9.320;2023-01-27T01:11:34;99051.88;;;2.76;100.00
23446;BME280;11895;48.738;9.320;2023-01-27T01:14:02;99053.63;;;2.74;100.00
23446;BME280;11895;48.738;9.320;2023-01-27T01:16:30;99057.28;;;2.67;100.00
23446;BME280;11895;48.738;9.320;2023-01-27T01:18:58;99060.06;;;2.55;100.00
23446;BME280;11895;48.738;9.320;2023-01-27T01:21:25;99051.03;;;2.70;100.00
23446;BME280;11895;48.738;9.320;2023-01-27T01:23:53;99064.22;;;2.82;100.00
23446;BME280;11895;48.738;9.320;2023-01-27T01:26:21;99059.66;;;2.92;100.00
23446;BME280;11895;48.738;9.320;2023-01-27T01:28:48;99058.75;;;2.93;100.00
23446;BME280;11895;48.738;9.320;2023-01-27T01:31:18;99061.59;;;2.77;100.00
23446;BME280;11895;48.738;9.320;2023-01-27T01:33:47;99062.25;;;2.98;100.00
23446;BME280;11895;48.738;9.320;2023-01-27T01:36:19;99061.53;;;2.82;100.00
23446;BME280;11895;48.738;9.320;2023-01-27T01:38:47;99056.13;;;2.90;100.00
23446;BME280;11895;48.738;9.320;2023-01-27T01:41:17;99058.00;;;2.80;100.00
23446;BME280;11895;48.738;9.320;2023-01-27T01:43:47;99049.84;;;2.97;100.00
23446;BME280;11895;48.738;9.320;2023-01-27T01:46:17;99049.56;;;3.18;100.00
23446;BME280;11895;48.738;9.320;2023-01-27T01:48:58;99044.56;;;2.92;100.00
23446;BME280;11895;48.738;9.320;2023-01-27T01:51:31;99050.63;;;3.05;100.00
23446;BME280;11895;48.738;9.320;2023-01-27T01:54:25;99042.78;;;2.93;100.00
23446;BME280;11895;48.738;9.320;2023-01-27T01:57:14;99039.09;;;3.06;100.00
23446;BME280;11895;48.738;9.320;2023-01-27T01:59:56;99034.84;;;2.91;100.00
23446;BME280;11895;48.738;9.320;2023-01-27T02:02:27;99034.16;;;2.72;100.00
23446;BME280;11895;48.738;9.320;2023-01-27T02:05:16;99032.06;;;2.99;100.00
23446;BME280;11895;48.738;9.320;2023-01-27T02:08:00;99032.19;;;2.88;100.00
23446;BME280;11895;48.738;9.320;2023-01-27T02:10:44;99030.41;;;2.89;100.00
23446;BME280;11895;48.738;9.320;2023-01-27T02:13:14;99028.69;;;2.84;100.00
23446;BME280;11895;48.738;9.320;2023-01-27T02:15:42;99027.91;;;2.78;100.00
23446;BME280;11895;48.738;9.320;2023-01-27T02:18:10;99017.16;;;2.86;100.00
23446;BME280;11895;48.738;9.320;2023-01-27T02:20:50;99024.28;;;2.83;100.00
23446;BME280;11895;48.738;9.320;2023-01-27T02:26:38;99025.91;;;2.97;100.00
23446;BME280;11895;48.738;9.320;2023-01-27T02:29:34;99016.22;;;2.90;100.00
23446;BME280;11895;48.738;9.320;2023-01-27T02:32:01;99023.22;;;2.97;100.00
23446;BME280;11895;48.738;9.320;2023-01-27T02:34:31;99017.91;;;2.97;100.00
23446;BME280;11895;48.738;9.320;2023-01-27T02:37:04;99016.09;;;2.99;100.00
23446;BME280;11895;48.738;9.320;2023-01-27T02:39:39;99015.22;;;3.00;100.00
23446;BME280;11895;48.738;9.320;2023-01-27T02:42:12;99019.53;;;3.07;100.00
23446;BME280;11895;48.738;9.320;2023-01-27T02:44:42;99021.50;;;2.93;100.00
23446;BME280;11895;48.738;9.320;2023-01-27T02:47:10;99025.69;;;3.12;100.00
23446;BME280;11895;48.738;9.320;2023-01-27T02:49:38;99024.84;;;3.10;100.00
23446;BME280;11895;48.738;9.320;2023-01-27T02:52:08;99032.00;;;3.03;100.00
23446;BME280;11895;48.738;9.320;2023-01-27T02:54:36;99020.41;;;3.09;100.00
23446;BME280;11895;48.738;9.320;2023-01-27T02:57:03;99018.03;;;2.84;100.00
23446;BME280;11895;48.738;9.320;2023-01-27T02:59:40;99019.78;;;2.89;100.00
23446;BME280;11895;48.738;9.320;2023-01-27T03:02:07;99018.91;;;2.88;100.00
23446;BME280;11895;48.738;9.320;2023-01-27T03:04:49;99012.69;;;2.91;100.00
23446;BME280;11895;48.738;9.320;2023-01-27T03:07:16;99010.75;;;3.02;100.00
23446;BME280;11895;48.738;9.320;2023-01-27T03:09:44;99010.84;;;2.96;100.00
23446;BME280;11895;48.738;9.320;2023-01-27T03:12:12;99008.22;;;2.91;100.00
23446;BME280;11895;48.738;9.320;2023-01-27T03:14:50;99007.94;;;2.39;100.00
23446;BME280;11895;48.738;9.320;2023-01-27T03:17:38;99005.88;;;2.65;100.00
23446;BME280;11895;48.738;9.320;2023-01-27T03:20:24;99025.47;;;2.58;100.00
23446;BME280;11895;48.738;9.320;2023-01-27T03:22:51;99011.03;;;2.80;100.00
23446;BME280;11895;48.738;9.320;2023-01-27T03:25:22;99026.09;;;2.81;100.00
23446;BME280;11895;48.738;9.320;2023-01-27T03:27:50;99026.94;;;2.83;100.00
23446;BME280;11895;48.738;9.320;2023-01-27T03:30:28;99024.13;;;2.94;100.00
23446;BME280;11895;48.738;9.320;2023-01-27T03:33:05;99024.38;;;2.76;100.00
23446;BME280;11895;48.738;9.320;2023-01-27T03:35:42;99024.06;;;3.02;100.00
23446;BME280;11895;48.738;9.320;2023-01-27T03:38:29;99029.44;;;2.97;100.00
23446;BME280;11895;48.738;9.320;2023-01-27T03:41:16;99030.25;;;3.02;100.00
23446;BME280;11895;48.738;9.320;2023-01-27T03:44:02;99030.28;;;3.01;100.00
23446;BME280;11895;48.738;9.320;2023-01-27T03:46:49;99025.72;;;3.09;100.00
23446;BME280;11895;48.738;9.320;2023-01-27T03:49:16;99025.09;;;2.89;100.00
23446;BME280;11895;48.738;9.320;2023-01-27T03:51:49;99017.34;;;2.69;100.00
23446;BME280;11895;48.738;9.320;2023-01-27T03:54:17;99012.91;;;2.69;100.00
23446;BME280;11895;48.738;9.320;2023-01-27T03:56:45;99027.88;;;2.81;100.00
23446;BME280;11895;48.738;9.320;2023-01-27T03:59:15;99033.44;;;2.61;100.00
23446;BME280;11895;48.738;9.320;2023-01-27T04:01:43;99034.25;;;2.66;100.00
23446;BME280;11895;48.738;9.320;2023-01-27T04:04:11;99033.97;;;2.88;100.00
23446;BME280;11895;48.738;9.320;2023-01-27T04:06:57;99032.16;;;2.90;100.00
23446;BME280;11895;48.738;9.320;2023-01-27T04:09:32;99021.53;;;2.90;100.00
23446;BME280;11895;48.738;9.320;2023-01-27T04:12:03;99023.38;;;2.84;100.00
23446;BME280;11895;48.738;9.320;2023-01-27T04:14:34;99024.06;;;3.00;100.00
23446;BME280;11895;48.738;9.320;2023-01-27T04:17:09;99025.72;;;3.11;100.00
23446;BME280;11895;48.738;9.320;2023-01-27T04:19:39;99025.84;;;3.01;100.00
23446;BME280;11895;48.738;9.320;2023-01-27T04:22:08;99026.72;;;3.02;100.00
23446;BME280;11895;48.738;9.320;2023-01-27T04:24:38;99030.16;;;3.10;100.00
23446;BME280;11895;48.738;9.320;2023-01-27T04:27:08;99027.50;;;3.08;100.00
23446;BME280;11895;48.738;9.320;2023-01-27T04:29:39;99023.00;;;3.15;100.00
23446;BME280;11895;48.738;9.320;2023-01-27T04:32:12;99024.31;;;2.82;100.00
23446;BME280;11895;48.738;9.320;2023-01-27T04:34:40;99025.47;;;2.58;100.00
23446;BME280;11895;48.738;9.320;2023-01-27T04:37:09;99029.66;;;2.80;100.00
23446;BME280;11895;48.738;9.320;2023-01-27T04:39:37;99027.75;;;2.89;100.00
23446;BME280;11895;48.738;9.320;2023-01-27T04:42:10;99035.13;;;2.65;100.00
23446;BME280;11895;48.738;9.320;2023-01-27T04:44:39;99024.50;;;2.64;100.00
23446;BME280;11895;48.738;9.320;2023-01-27T04:47:07;99033.00;;;2.95;100.00
23446;BME280;11895;48.738;9.320;2023-01-27T04:49:35;99026.13;;;2.75;100.00
23446;BME280;11895;48.738;9.320;2023-01-27T04:52:03;99034.06;;;2.81;100.00
23446;BME280;11895;48.738;9.320;2023-01-27T04:54:30;99029.16;;;2.45;100.00
23446;BME280;11895;48.738;9.320;2023-01-27T04:57:00;99025.69;;;2.38;100.00
23446;BME280;11895;48.738;9.320;2023-01-27T04:59:31;99031.63;;;2.60;100.00
23446;BME280;11895;48.738;9.320;2023-01-27T05:01:59;99044.84;;;2.69;100.00
23446;BME280;11895;48.738;9.320;2023-01-27T05:04:27;99036.78;;;2.75;100.00
23446;BME280;11895;48.738;9.320;2023-01-27T05:06:55;99048.41;;;2.65;100.00
23446;BME280;11895;48.738;9.320;2023-01-27T05:09:23;99046.66;;;2.64;100.00
23446;BME280;11895;48.738;9.320;2023-01-27T05:11:50;99051.69;;;2.89;100.00
23446;BME280;11895;48.738;9.320;2023-01-27T05:14:18;99050.75;;;2.94;100.00
23446;BME280;11895;48.738;9.320;2023-01-27T05:16:46;99053.47;;;2.90;100.00
23446;BME280;11895;48.738;9.320;2023-01-27T05:19:14;99053.63;;;2.74;100.00
23446;BME280;11895;48.738;9.320;2023-01-27T05:21:41;99046.38;;;2.89;100.00
23446;BME280;11895;48.738;9.320;2023-01-27T05:24:10;99048.91;;;2.99;100.00
23446;BME280;11895;48.738;9.320;2023-01-27T05:26:38;99046.16;;;3.07;100.00
23446;BME280;11895;48.738;9.320;2023-01-27T05:29:05;99049.72;;;3.06;100.00
23446;BME280;11895;48.738;9.320;2023-01-27T05:31:33;99049.75;;;3.03;100.00
23446;BME280;11895;48.738;9.320;2023-01-27T05:34:02;99054.19;;;3.02;100.00
23446;BME280;11895;48.738;9.320;2023-01-27T05:36:30;99053.31;;;3.02;100.00
23446;BME280;11895;48.738;9.320;2023-01-27T05:38:58;99056.72;;;3.13;100.00
23446;BME280;11895;48.738;9.320;2023-01-27T05:41:28;99049.81;;;3.00;100.00
23446;BME280;11895;48.738;9.320;2023-01-27T05:43:59;99055.19;;;2.94;100.00
23446;BME280;11895;48.738;9.320;2023-01-27T05:46:28;99062.34;;;2.89;100.00
23446;BME280;11895;48.738;9.320;2023-01-27T05:49:00;99060.47;;;3.00;100.00
23446;BME280;11895;48.738;9.320;2023-01-27T05:51:38;99067.53;;;3.01;100.00
23446;BME280;11895;48.738;9.320;2023-01-27T05:54:07;99063.13;;;3.00;100.00
23446;BME280;11895;48.738;9.320;2023-01-27T05:56:36;99066.34;;;2.48;100.00
23446;BME280;11895;48.738;9.320;2023-01-27T05:59:04;99059.03;;;2.68;100.00
23446;BME280;11895;48.738;9.320;2023-01-27T06:01:33;99060.78;;;2.69;100.00
23446;BME280;11895;48.738;9.320;2023-01-27T06:04:02;99065.38;;;2.55;100.00
23446;BME280;11895;48.738;9.320;2023-01-27T06:06:32;99060.00;;;2.61;100.00
23446;BME280;11895;48.738;9.320;2023-01-27T06:09:00;99060.78;;;2.69;100.00
23446;BME280;11895;48.738;9.320;2023-01-27T06:11:28;99060.88;;;2.63;100.00
23446;BME280;11895;48.738;9.320;2023-01-27T06:13:56;99063.31;;;2.81;100.00
23446;BME280;11895;48.738;9.320;2023-01-27T06:16:26;99072.91;;;2.95;100.00
23446;BME280;11895;48.738;9.320;2023-01-27T06:18:54;99069.25;;;3.05;100.00
23446;BME280;11895;48.738;9.320;2023-01-27T06:21:22;99061.34;;;3.00;100.00
23446;BME280;11895;48.738;9.320;2023-01-27T06:23:49;99071.13;;;2.97;100.00
23446;BME280;11895;48.738;9.320;2023-01-27T06:26:19;99066.66;;;3.00;100.00
23446;BME280;11895;48.738;9.320;2023-01-27T06:28:47;99065.06;;;2.84;100.00
23446;BME280;11895;48.738;9.320;2023-01-27T06:31:18;99062.41;;;2.82;100.00
23446;BME280;11895;48.738;9.320;2023-01-27T06:33:49;99061.41;;;2.93;100.00
23446;BME280;11895;48.738;9.320;2023-01-27T06:36:19;99072.00;;;2.97;100.00
23446;BME280;11895;48.738;9.320;2023-01-27T06:38:48;99078.28;;;2.92;100.00
23446;BME280;11895;48.738;9.320;2023-01-27T06:41:17;99078.31;;;2.89;100.00
23446;BME280;11895;48.738;9.320;2023-01-27T06:43:45;99087.16;;;2.91;100.00
23446;BME280;11895;48.738;9.320;2023-01-27T06:46:13;99086.38;;;2.79;100.00
23446;BME280;11895;48.738;9.320;2023-01-27T06:48:41;99090.59;;;2.99;100.00
23446;BME280;11895;48.738;9.320;2023-01-27T06:51:09;99091.53;;;2.96;100.00
23446;BME280;11895;48.738;9.320;2023-01-27T06:53:36;99102.25;;;2.90;100.00
23446;BME280;11895;48.738;9.320;2023-01-27T06:56:05;99103.09;;;2.95;100.00
23446;BME280;11895;48.738;9.320;2023-01-27T06:58:33;99117.22;;;2.99;100.00
23446;BME280;11895;48.738;9.320;2023-01-27T07:01:04;99120.84;;;2.92;100.00
23446;BME280;11895;48.738;9.320;2023-01-27T07:03:33;99123.47;;;2.96;100.00
23446;BME280;11895;48.738;9.320;2023-01-27T07:06:04;99125.91;;;3.16;100.00
23446;BME280;11895;48.738;9.320;2023-01-27T07:08:32;99118.75;;;3.20;100.00
23446;BME280;11895;48.738;9.320;2023-01-27T07:11:02;99124.97;;;3.20;100.00
23446;BME280;11895;48.738;9.320;2023-01-27T07:13:31;99133.88;;;3.16;100.00
23446;BME280;11895;48.738;9.320;2023-01-27T07:15:59;99134.72;;;3.21;100.00
23446;BME280;11895;48.738;9.320;2023-01-27T07:18:26;99133.06;;;3.11;100.00
23446;BME280;11895;48.738;9.320;2023-01-27T07:20:54;99142.06;;;2.98;100.00
23446;BME280;11895;48.738;9.320;2023-01-27T07:23:22;99127.72;;;3.11;100.00
23446;BME280;11895;48.738;9.320;2023-01-27T07:25:49;99120.66;;;3.08;100.00
23446;BME280;11895;48.738;9.320;2023-01-27T07:28:17;99140.97;;;3.14;100.00
23446;BME280;11895;48.738;9.320;2023-01-27T07:30:45;99139.47;;;2.93;100.00
23446;BME280;11895;48.738;9.320;2023-01-27T07:33:13;99139.94;;;3.27;100.00
23446;BME280;11895;48.738;9.320;2023-01-27T07:35:41;99143.50;;;3.29;100.00
23446;BME280;11895;48.738;9.320;2023-01-27T07:38:09;99146.03;;;3.37;100.00
23446;BME280;11895;48.738;9.320;2023-01-27T07:40:37;99146.13;;;3.31;100.00
23446;BME280;11895;48.738;9.320;2023-01-27T07:43:04;99162.91;;;3.38;100.00
23446;BME280;11895;48.738;9.320;2023-01-27T07:45:34;99154.94;;;3.36;100.00
23446;BME280;11895;48.738;9.320;2023-01-27T07:48:08;99169.94;;;3.45;100.00
23446;BME280;11895;48.738;9.320;2023-01-27T07:50:39;99168.19;;;3.44;100.00
23446;BME280;11895;48.738;9.320;2023-01-27T07:53:09;99141.47;;;3.50;100.00
23446;BME280;11895;48.738;9.320;2023-01-27T07:55:37;99155.72;;;3.46;100.00
23446;BME280;11895;48.738;9.320;2023-01-27T07:58:04;99163.63;;;3.50;100.00
23446;BME280;11895;48.738;9.320;2023-01-27T08:00:32;99159.97;;;3.57;100.00
23446;BME280;11895;48.738;9.320;2023-01-27T08:03:01;99168.84;;;3.59;100.00
23446;BME280;11895;48.738;9.320;2023-01-27T08:05:32;99173.63;;;3.31;100.00
23446;BME280;11895;48.738;9.320;2023-01-27T08:08:00;99169.03;;;3.43;100.00
23446;BME280;11895;48.738;9.320;2023-01-27T08:10:30;99161.78;;;3.58;100.00
23446;BME280;11895;48.738;9.320;2023-01-27T08:12:58;99164.53;;;3.51;100.00
23446;BME280;11895;48.738;9.320;2023-01-27T08:15:26;99162.75;;;3.50;100.00
23446;BME280;11895;48.738;9.320;2023-01-27T08:17:55;99160.22;;;3.41;100.00
23446;BME280;11895;48.738;9.320;2023-01-27T08:20:24;99158.22;;;3.58;100.00
23446;BME280;11895;48.738;9.320;2023-01-27T08:22:53;99174.34;;;3.46;100.00
23446;BME280;11895;48.738;9.320;2023-01-27T08:25:22;99173.44;;;3.47;100.00
23446;BME280;11895;48.738;9.320;2023-01-27T08:27:51;99180.53;;;3.48;100.00
23446;BME280;11895;48.738;9.320;2023-01-27T08:30:22;99183.88;;;3.65;100.00
23446;BME280;11895;48.738;9.320;2023-01-27T08:32:50;99189.19;;;3.65;100.00
23446;BME280;11895;48.738;9.320;2023-01-27T08:35:17;99180.34;;;3.63;100.00
23446;BME280;11895;48.738;9.320;2023-01-27T08:37:46;99191.88;;;3.62;100.00
23446;BME280;11895;48.738;9.320;2023-01-27T08:40:15;99194.75;;;3.47;100.00
23446;BME280;11895;48.738;9.320;2023-01-27T08:42:43;99188.56;;;3.43;100.00
23446;BME280;11895;48.738;9.320;2023-01-27T08:45:11;99184.00;;;3.53;100.00
23446;BME280;11895;48.738;9.320;2023-01-27T08:47:42;99181.22;;;3.65;100.00
23446;BME280;11895;48.738;9.320;2023-01-27T08:50:10;99178.53;;;3.65;100.00
23446;BME280;11895;48.738;9.320;2023-01-27T08:52:39;99198.19;;;3.58;100.00
23446;BME280;11895;48.738;9.320;2023-01-27T08:55:32;99206.28;;;3.47;100.00
23446;BME280;11895;48.738;9.320;2023-01-27T08:58:00;99202.75;;;3.47;100.00
23446;BME280;11895;48.738;9.320;2023-01-27T09:00:30;99205.28;;;3.56;100.00
23446;BME280;11895;48.738;9.320;2023-01-27T09:02:58;99215.00;;;3.63;100.00
23446;BME280;11895;48.738;9.320;2023-01-27T09:05:26;99204.56;;;3.42;100.00
23446;BME280;11895;48.738;9.320;2023-01-27T09:07:53;99203.91;;;3.24;100.00
23446;BME280;11895;48.738;9.320;2023-01-27T09:10:21;99191.94;;;3.59;100.00
23446;BME280;11895;48.738;9.320;2023-01-27T09:12:49;99203.44;;;3.64;100.00
23446;BME280;11895;48.738;9.320;2023-01-27T09:15:32;99197.25;;;3.60;100.00
23446;BME280;11895;48.738;9.320;2023-01-27T09:18:20;99187.44;;;3.64;100.00
23446;BME280;11895;48.738;9.320;2023-01-27T09:20:49;99187.38;;;3.67;100.00
23446;BME280;11895;48.738;9.320;2023-01-27T09:23:16;99205.19;;;3.65;100.00
23446;BME280;11895;48.738;9.320;2023-01-27T09:25:44;99209.59;;;3.68;100.00
23446;BME280;11895;48.738;9.320;2023-01-27T09:28:12;99192.88;;;3.55;100.00
23446;BME280;11895;48.738;9.320;2023-01-27T09:30:44;99196.38;;;3.60;100.00
23446;BME280;11895;48.738;9.320;2023-01-27T09:33:13;99189.13;;;3.71;100.00
23446;BME280;11895;48.738;9.320;2023-01-27T09:35:45;99201.50;;;3.75;100.00
23446;BME280;11895;48.738;9.320;2023-01-27T09:38:18;99195.09;;;3.92;100.00
23446;BME280;11895;48.738;9.320;2023-01-27T09:46:57;99206.56;;;3.97;100.00
23446;BME280;11895;48.738;9.320;2023-01-27T09:53:31;99196.03;;;3.88;100.00
23446;BME280;11895;48.738;9.320;2023-01-27T09:56:09;99208.41;;;3.92;100.00
23446;BME280;11895;48.738;9.320;2023-01-27T10:11:04;99202.03;;;4.02;100.00
23446;BME280;11895;48.738;9.320;2023-01-27T10:22:38;99203.09;;;4.49;100.00
23446;BME280;11895;48.738;9.320;2023-01-27T10:25:36;99203.75;;;4.63;100.00
23446;BME280;11895;48.738;9.320;2023-01-27T10:28:16;99209.25;;;4.54;100.00
23446;BME280;11895;48.738;9.320;2023-01-27T10:36:25;99216.25;;;4.61;100.00
23446;BME280;11895;48.738;9.320;2023-01-27T10:39:24;99211.16;;;4.46;100.00
23446;BME280;11895;48.738;9.320;2023-01-27T10:42:06;99216.19;;;4.64;100.00
23446;BME280;11895;48.738;9.320;2023-01-27T10:48:34;99223.47;;;4.56;100.00
23446;BME280;11895;48.738;9.320;2023-01-27T10:51:07;99226.81;;;4.67;100.00
23446;BME280;11895;48.738;9.320;2023-01-27T10:53:48;99221.44;;;4.70;100.00
23446;BME280;11895;48.738;9.320;2023-01-27T10:59:03;99210.78;;;4.70;100.00
23446;BME280;11895;48.738;9.320;2023-01-27T11:01:45;99221.31;;;4.79;100.00
23446;BME280;11895;48.738;9.320;2023-01-27T11:04:48;99216.03;;;4.73;100.00
23446;BME280;11895;48.738;9.320;2023-01-27T11:07:22;99208.59;;;4.94;100.00
23446;BME280;11895;48.738;9.320;2023-01-27T11:12:34;99202.59;;;4.81;100.00
23446;BME280;11895;48.738;9.320;2023-01-27T11:15:22;99215.81;;;4.88;100.00
23446;BME280;11895;48.738;9.320;2023-01-27T11:18:07;99203.31;;;4.90;100.00
23446;BME280;11895;48.738;9.320;2023-01-27T11:20:41;99207.59;;;4.99;100.00
23446;BME280;11895;48.738;9.320;2023-01-27T11:23:18;99207.59;;;4.99;100.00
23446;BME280;11895;48.738;9.320;2023-01-27T11:32:00;99194.69;;;4.73;100.00
23446;BME280;11895;48.738;9.320;2023-01-27T11:35:02;99204.56;;;5.19;100.00
23446;BME280;11895;48.738;9.320;2023-01-27T11:37:42;99190.63;;;5.02;100.00
23446;BME280;11895;48.738;9.320;2023-01-27T11:40:25;99185.41;;;4.96;100.00
23446;BME280;11895;48.738;9.320;2023-01-27T11:43:01;99192.63;;;4.90;100.00
23446;BME280;11895;48.738;9.320;2023-01-27T11:45:31;99185.28;;;5.03;100.00
23446;BME280;11895;48.738;9.320;2023-01-27T11:48:04;99184.09;;;5.20;100.00
23446;BME280;11895;48.738;9.320;2023-01-27T11:50:35;99192.00;;;5.24;100.00
23446;BME280;11895;48.738;9.320;2023-01-27T11:53:24;99189.19;;;5.32;100.00
23446;BME280;11895;48.738;9.320;2023-01-27T11:56:02;99180.50;;;5.21;100.00
23446;BME280;11895;48.738;9.320;2023-01-27T11:59:02;99192.06;;;5.21;100.00
23446;BME280;11895;48.738;9.320;2023-01-27T12:08:02;99170.66;;;5.24;100.00
23446;BME280;11895;48.738;9.320;2023-01-27T12:10:36;99163.84;;;5.08;100.00
23446;BME280;11895;48.738;9.320;2023-01-27T12:13:19;99171.59;;;5.20;100.00
23446;BME280;11895;48.738;9.320;2023-01-27T12:15:59;99167.34;;;5.10;100.00
23446;BME280;11895;48.738;9.320;2023-01-27T12:18:32;99168.28;;;5.09;100.00
23446;BME280;11895;48.738;9.320;2023-01-27T12:21:04;99169.06;;;5.14;100.00
23446;BME280;11895;48.738;9.320;2023-01-27T12:23:53;99167.31;;;5.13;100.00
23446;BME280;11895;48.738;9.320;2023-01-27T12:26:35;99167.41;;;5.07;100.00
23446;BME280;11895;48.738;9.320;2023-01-27T12:29:27;99172.56;;;5.16;100.00
23446;BME280;11895;48.738;9.320;2023-01-27T12:32:54;99166.09;;;5.29;100.00
23446;BME280;11895;48.738;9.320;2023-01-27T12:35:24;99175.94;;;5.27;100.00
23446;BME280;11895;48.738;9.320;2023-01-27T12:38:15;99172.16;;;4.91;100.00
23446;BME280;11895;48.738;9.320;2023-01-27T12:40:49;99172.88;;;5.01;100.00
23446;BME280;11895;48.738;9.320;2023-01-27T12:43:25;99164.72;;;5.07;100.00
23446;BME280;11895;48.738;9.320;2023-01-27T12:48:33;99156.78;;;5.04;100.00
23446;BME280;11895;48.738;9.320;2023-01-27T12:51:22;99153.03;;;5.14;100.00
23446;BME280;11895;48.738;9.320;2023-01-27T12:54:24;99153.34;;;4.99;100.00
23446;BME280;11895;48.738;9.320;2023-01-27T12:57:01;99149.50;;;5.13;100.00
23446;BME280;11895;48.738;9.320;2023-01-27T12:59:31;99146.00;;;5.10;100.00
23446;BME280;11895;48.738;9.320;2023-01-27T13:02:00;99147.56;;;5.20;100.00
23446;BME280;11895;48.738;9.320;2023-01-27T13:04:38;99140.13;;;5.37;100.00
23446;BME280;11895;48.738;9.320;2023-01-27T13:07:15;99140.94;;;5.39;100.00
23446;BME280;11895;48.738;9.320;2023-01-27T13:10:05;99144.41;;;5.45;100.00
23446;BME280;11895;48.738;9.320;2023-01-27T13:12:51;99146.94;;;5.51;100.00
23446;BME280;11895;48.738;9.320;2023-01-27T13:15:22;99145.06;;;5.56;100.00
23446;BME280;11895;48.738;9.320;2023-01-27T13:17:56;99137.53;;;5.31;100.00
23446;BME280;11895;48.738;9.320;2023-01-27T13:21:02;99140.56;;;5.58;100.00
23446;BME280;11895;48.738;9.320;2023-01-27T13:23:33;99137.25;;;5.47;100.00
23446;BME280;11895;48.738;9.320;2023-01-27T13:28:51;99141.97;;;5.34;100.00
23446;BME280;11895;48.738;9.320;2023-01-27T13:37:19;99159.50;;;5.46;100.00
23446;BME280;11895;48.738;9.320;2023-01-27T13:43:37;99165.16;;;5.30;100.00
23446;BME280;11895;48.738;9.320;2023-01-27T13:46:36;99172.41;;;5.25;100.00
23446;BME280;11895;48.738;9.320;2023-01-27T13:49:20;99172.28;;;5.31;100.00
23446;BME280;11895;48.738;9.320;2023-01-27T13:52:05;99163.75;;;5.11;100.00
23446;BME280;11895;48.738;9.320;2023-01-27T13:54:33;99172.69;;;5.10;100.00
23446;BME280;11895;48.738;9.320;2023-01-27T13:57:21;99176.03;;;5.21;100.00
23446;BME280;11895;48.738;9.320;2023-01-27T14:00:21;99185.69;;;5.28;100.00
23446;BME280;11895;48.738;9.320;2023-01-27T14:08:55;99197.41;;;5.21;100.00
23446;BME280;11895;48.738;9.320;2023-01-27T14:11:35;99193.84;;;5.22;100.00
23446;BME280;11895;48.738;9.320;2023-01-27T14:14:43;99200.34;;;5.06;100.00
23446;BME280;11895;48.738;9.320;2023-01-27T14:17:38;99201.16;;;5.11;100.00
23446;BME280;11895;48.738;9.320;2023-01-27T14:29:09;99200.91;;;4.74;100.00
23446;BME280;11895;48.738;9.320;2023-01-27T14:37:50;99204.25;;;4.86;100.00
23446;BME280;11895;48.738;9.320;2023-01-27T14:40:37;99206.81;;;4.93;100.00
23446;BME280;11895;48.738;9.320;2023-01-27T14:49:27;99205.06;;;4.92;100.00
23446;BME280;11895;48.738;9.320;2023-01-27T15:00:35;99208.69;;;4.89;100.00
23446;BME280;11895;48.738;9.320;2023-01-27T15:04:00;99211.53;;;4.77;100.00
23446;BME280;11895;48.738;9.320;2023-01-27T15:09:43;99199.94;;;4.79;100.00
23446;BME280;11895;48.738;9.320;2023-01-27T15:12:36;99212.41;;;4.79;100.00
23446;BME280;11895;48.738;9.320;2023-01-27T15:24:34;99203.41;;;4.84;100.00
23446;BME280;11895;48.738;9.320;2023-01-27T15:27:13;99210.66;;;4.76;100.00
23446;BME280;11895;48.738;9.320;2023-01-27T15:29:41;99197.50;;;4.66;100.00
23446;BME280;11895;48.738;9.320;2023-01-27T15:35:22;99200.44;;;4.49;100.00
23446;BME280;11895;48.738;9.320;2023-01-27T15:38:19;99211.75;;;4.64;100.00
23446;BME280;11895;48.738;9.320;2023-01-27T15:44:01;99204.97;;;4.45;100.00
23446;BME280;11895;48.738;9.320;2023-01-27T15:46:51;99215.44;;;4.56;100.00